Time;durP1;ratioP1;P1;durP2;ratioP2;P2;SDS_P1;SDS_P2;PMS_P1;PMS_P2;Temp;Humidity;BMP_temperature;BMP_pressure;BME280_temperature;BME280_humidity;BME280_pressure;Samples;Min_cycle;Max_cycle;Signal;HPM_P1;HPM_P2
2022/03/20 00:01:21;;;;;;;62.75;26.05;;;;;;;;;;6209610;28;20115;-65
2022/03/20 00:04:22;;;;;;;75.47;29.27;;;;;;;;;;6212252;28;20062;-65
2022/03/20 00:07:23;;;;;;;87.82;27.80;;;;;;;;;;6214334;28;20136;-64
2022/03/20 00:10:23;;;;;;;71.95;27.13;;;;;;;;;;6207489;28;20152;-69
2022/03/20 00:13:24;;;;;;;63.15;23.90;;;;;;;;;;6208831;28;20570;-68
2022/03/20 00:16:29;;;;;;;68.38;25.58;;;;;;;;;;6195810;28;20464;-62
2022/03/20 00:19:31;;;;;;;65.93;26.40;;;;;;;;;;6206953;28;20046;-69
2022/03/20 00:22:34;;;;;;;63.90;25.23;;;;;;;;;;6208043;28;20123;-71
2022/03/20 00:25:35;;;;;;;;;;;;;;;;;;6207806;28;20441;-66
2022/03/20 00:28:35;;;;;;;71.30;26.30;;;;;;;;;;6212854;28;19927;-68
2022/03/20 00:31:36;;;;;;;77.00;28.13;;;;;;;;;;6209612;28;20043;-67
2022/03/20 00:34:38;;;;;;;90.68;30.05;;;;;;;;;;6208748;28;20497;-69
2022/03/20 00:37:39;;;;;;;69.05;25.90;;;;;;;;;;6211216;28;20052;-64
2022/03/20 00:40:40;;;;;;;59.78;24.17;;;;;;;;;;6198622;28;20046;-64
2022/03/20 00:43:40;;;;;;;63.95;25.48;;;;;;;;;;6177025;28;20077;-66
2022/03/20 00:46:41;;;;;;;73.88;27.42;;;;;;;;;;6182414;28;20101;-66
2022/03/20 00:49:42;;;;;;;68.80;26.50;;;;;;;;;;6180569;28;20078;-65
2022/03/20 00:52:43;;;;;;;67.05;25.73;;;;;;;;;;6182030;28;20042;-63
2022/03/20 00:55:44;;;;;;;73.20;27.42;;;;;;;;;;6179589;28;20050;-63
2022/03/20 00:58:46;;;;;;;65.30;25.10;;;;;;;;;;6178372;28;20068;-64
2022/03/20 01:01:46;;;;;;;60.97;24.80;;;;;;;;;;6180808;28;20104;-65
2022/03/20 01:04:47;;;;;;;63.90;25.70;;;;;;;;;;6179760;28;20452;-63
2022/03/20 01:07:48;;;;;;;67.05;24.58;;;;;;;;;;6176726;28;20142;-64
2022/03/20 01:10:50;;;;;;;69.50;26.27;;;;;;;;;;6181650;28;20073;-65
2022/03/20 01:13:50;;;;;;;59.13;24.92;;;;;;;;;;6181130;28;20056;-67
2022/03/20 01:16:53;;;;;;;57.35;25.17;;;;;;;;;;6175571;28;20046;-63
2022/03/20 01:19:54;;;;;;;62.78;27.38;;;;;;;;;;6180952;28;20497;-63
2022/03/20 01:22:55;;;;;;;66.85;27.15;;;;;;;;;;6181481;28;20062;-62
2022/03/20 01:25:56;;;;;;;68.07;26.73;;;;;;;;;;6178235;28;20169;-63
2022/03/20 01:28:57;;;;;;;66.97;26.33;;;;;;;;;;6178198;28;20054;-63
2022/03/20 01:31:57;;;;;;;71.03;27.77;;;;;;;;;;6182120;28;20662;-64
2022/03/20 01:34:58;;;;;;;78.68;28.00;;;;;;;;;;6189212;28;20077;-63
2022/03/20 01:37:58;;;;;;;70.60;28.30;;;;;;;;;;6182378;28;20141;-63
2022/03/20 01:41:02;;;;;;;66.13;27.00;;;;;;;;;;6171925;28;20061;-62
2022/03/20 01:44:03;;;;;;;75.25;29.50;;;;;;;;;;6186950;28;20445;-63
2022/03/20 01:47:08;;;;;;;68.72;29.50;;;;;;;;;;6177174;28;20489;-63
2022/03/20 01:50:10;;;;;;;72.82;28.45;;;;;;;;;;6180205;28;20066;-63
2022/03/20 01:53:10;;;;;;;69.28;29.63;;;;;;;;;;6180005;28;20042;-62
2022/03/20 01:56:11;;;;;;;76.53;30.88;;;;;;;;;;6177756;28;20604;-62
2022/03/20 01:59:14;;;;;;;71.60;32.63;;;;;;;;;;6182615;28;20559;-63
2022/03/20 02:02:15;;;;;;;74.05;30.02;;;;;;;;;;6181909;28;20434;-63
2022/03/20 02:05:16;;;;;;;71.30;29.73;;;;;;;;;;6187801;28;20046;-63
2022/03/20 02:08:25;;;;;;;89.07;34.33;;;;;;;;;;6183867;28;20065;-63
2022/03/20 02:11:25;;;;;;;81.15;32.83;;;;;;;;;;6187149;28;20512;-64
2022/03/20 02:14:27;;;;;;;80.50;31.52;;;;;;;;;;6194867;28;20078;-63
2022/03/20 02:17:30;;;;;;;76.67;31.10;;;;;;;;;;6195814;28;20464;-62
2022/03/20 02:20:31;;;;;;;77.72;29.67;;;;;;;;;;6195249;28;20322;-62
2022/03/20 02:23:34;;;;;;;70.63;28.55;;;;;;;;;;6184069;28;20109;-62
2022/03/20 02:26:35;;;;;;;60.05;24.98;;;;;;;;;;6181522;28;20490;-62
2022/03/20 02:29:36;;;;;;;63.35;26.42;;;;;;;;;;6183181;28;20057;-62
2022/03/20 02:32:37;;;;;;;63.22;27.23;;;;;;;;;;6185132;28;20046;-64
2022/03/20 02:35:39;;;;;;;65.63;28.75;;;;;;;;;;6180519;28;20149;-63
2022/03/20 02:38:40;;;;;;;65.03;28.48;;;;;;;;;;6180526;28;20043;-64
2022/03/20 02:41:41;;;;;;;77.82;30.52;;;;;;;;;;6186117;28;20054;-65
2022/03/20 02:45:00;;;;;;;74.78;30.05;;;;;;;;;;6181226;28;20077;-63
2022/03/20 02:48:06;;;;;;;78.88;30.00;;;;;;;;;;6176706;28;20051;-62
2022/03/20 02:51:06;;;;;;;76.63;29.77;;;;;;;;;;6177840;28;20155;-62
2022/03/20 02:54:07;;;;;;;73.03;29.30;;;;;;;;;;6182150;28;20050;-69
2022/03/20 02:57:08;;;;;;;68.25;28.05;;;;;;;;;;6181638;28;20078;-64
2022/03/20 03:00:11;;;;;;;67.13;28.50;;;;;;;;;;6182948;28;20126;-62
2022/03/20 03:03:12;;;;;;;62.35;25.35;;;;;;;;;;6180798;28;20054;-62
2022/03/20 03:06:13;;;;;;;65.28;26.83;;;;;;;;;;6179938;28;20386;-66
2022/03/20 03:12:33;;;;;;;75.85;28.85;;;;;;;;;;6177750;28;20042;-62
2022/03/20 03:15:33;;;;;;;67.78;27.23;;;;;;;;;;6185213;28;20138;-62
2022/03/20 03:18:35;;;;;;;66.60;27.25;;;;;;;;;;6181733;28;23084;-62
2022/03/20 03:21:36;;;;;;;75.95;30.20;;;;;;;;;;6178131;28;20549;-62
2022/03/20 03:24:37;;;;;;;63.58;25.38;;;;;;;;;;6182760;28;20100;-62
2022/03/20 03:27:37;;;;;;;83.65;31.85;;;;;;;;;;6185407;28;20049;-62
2022/03/20 03:30:41;;;;;;;56.97;23.52;;;;;;;;;;6179854;28;20433;-63
2022/03/20 03:35:41;;;;;;;55.25;22.33;;;;;;;;;;6181382;28;20157;-62
2022/03/20 03:37:02;;;;;;;50.53;23.30;;;;;;;;;;6181511;28;20061;-62
2022/03/20 03:40:07;;;;;;;62.35;24.75;;;;;;;;;;6181308;28;20141;-62
2022/03/20 03:43:09;;;;;;;62.85;25.05;;;;;;;;;;6181747;28;20142;-63
2022/03/20 03:46:10;;;;;;;48.60;22.15;;;;;;;;;;6181403;28;20050;-62
2022/03/20 03:49:10;;;;;;;63.50;30.38;;;;;;;;;;6180368;28;20528;-62
2022/03/20 03:52:11;;;;;;;61.88;24.67;;;;;;;;;;6178910;28;20066;-64
2022/03/20 03:55:12;;;;;;;54.97;23.58;;;;;;;;;;6182432;28;20054;-63
2022/03/20 03:58:14;;;;;;;52.70;24.25;;;;;;;;;;6177832;28;20050;-62
2022/03/20 04:01:15;;;;;;;54.83;23.20;;;;;;;;;;6182142;28;20043;-63
2022/03/20 04:04:16;;;;;;;50.38;22.13;;;;;;;;;;6179948;28;20145;-65
2022/03/20 04:07:18;;;;;;;60.20;24.00;;;;;;;;;;6180252;28;20054;-62
2022/03/20 04:10:19;;;;;;;54.50;23.95;;;;;;;;;;6182003;28;20097;-61
2022/03/20 04:13:19;;;;;;;57.78;25.40;;;;;;;;;;6178614;28;20058;-64
2022/03/20 04:16:20;;;;;;;53.25;25.15;;;;;;;;;;6176110;28;20245;-67
2022/03/20 04:19:21;;;;;;;56.30;25.35;;;;;;;;;;6177534;28;20099;-63
2022/03/20 04:22:21;;;;;;;59.40;25.13;;;;;;;;;;6181020;28;20532;-63
2022/03/20 04:25:23;;;;;;;57.42;24.90;;;;;;;;;;6183364;28;20409;-63
2022/03/20 04:28:23;;;;;;;59.22;28.13;;;;;;;;;;6175846;28;20121;-65
2022/03/20 04:31:24;;;;;;;56.42;26.38;;;;;;;;;;6176101;28;20521;-62
2022/03/20 04:34:26;;;;;;;61.88;28.08;;;;;;;;;;6178970;28;20121;-62
2022/03/20 04:37:26;;;;;;;65.30;29.20;;;;;;;;;;6180175;28;20055;-63
2022/03/20 04:40:27;;;;;;;64.50;27.38;;;;;;;;;;6182725;28;20133;-64
2022/03/20 04:43:28;;;;;;;64.80;26.75;;;;;;;;;;6179619;28;20046;-61
2022/03/20 04:46:28;;;;;;;62.28;26.98;;;;;;;;;;6177660;28;20074;-62
2022/03/20 04:59:26;;;;;;;94.82;31.83;;;;;;;;;;6178668;28;20508;-62
2022/03/20 05:02:29;;;;;;;90.68;33.42;;;;;;;;;;6173850;28;20059;-62
2022/03/20 05:05:30;;;;;;;90.85;31.02;;;;;;;;;;6176318;28;20128;-62
2022/03/20 05:08:32;;;;;;;76.65;30.55;;;;;;;;;;6178488;28;20580;-62
2022/03/20 05:14:56;;;;;;;73.60;28.45;;;;;;;;;;6178897;28;20046;-62
2022/03/20 05:17:57;;;;;;;68.82;27.83;;;;;;;;;;6175285;28;20059;-61
2022/03/20 05:20:58;;;;;;;62.35;26.92;;;;;;;;;;6176919;28;20074;-61
2022/03/20 05:23:59;;;;;;;68.82;26.55;;;;;;;;;;6174678;28;20417;-61
2022/03/20 05:27:00;;;;;;;61.63;26.83;;;;;;;;;;6178107;28;20050;-64
2022/03/20 05:30:02;;;;;;;69.65;26.27;;;;;;;;;;6184621;28;20484;-64
2022/03/20 05:33:03;;;;;;;65.20;27.03;;;;;;;;;;6179526;28;20061;-64
2022/03/20 05:36:03;;;;;;;65.90;28.13;;;;;;;;;;6181639;28;20050;-65
2022/03/20 05:39:04;;;;;;;69.75;27.45;;;;;;;;;;6182702;28;20065;-63
2022/03/20 05:42:06;;;;;;;62.03;27.15;;;;;;;;;;6181635;28;20046;-62
2022/03/20 05:45:10;;;;;;;79.57;31.27;;;;;;;;;;6182399;28;20046;-62
2022/03/20 05:48:10;;;;;;;76.18;31.15;;;;;;;;;;6181594;28;20507;-63
2022/03/20 05:51:15;;;;;;;65.82;28.30;;;;;;;;;;6184331;28;20050;-63
2022/03/20 05:54:16;;;;;;;65.82;27.08;;;;;;;;;;6186427;28;20049;-64
2022/03/20 06:00:36;;;;;;;65.28;27.85;;;;;;;;;;6180148;28;20046;-65
2022/03/20 06:03:37;;;;;;;66.30;27.77;;;;;;;;;;6183325;28;20626;-64
2022/03/20 06:06:37;;;;;;;59.67;27.65;;;;;;;;;;6180133;28;20196;-61
2022/03/20 06:09:38;;;;;;;63.78;27.05;;;;;;;;;;6182564;28;20129;-62
2022/03/20 06:12:40;;;;;;;61.55;28.35;;;;;;;;;;6180258;28;20566;-61
2022/03/20 06:15:41;;;;;;;61.45;28.17;;;;;;;;;;6191977;28;20070;-62
2022/03/20 06:18:42;;;;;;;65.50;28.83;;;;;;;;;;6183193;28;20042;-62
2022/03/20 06:21:44;;;;;;;64.03;29.58;;;;;;;;;;6189205;28;20042;-60
2022/03/20 06:24:45;;;;;;;61.20;28.40;;;;;;;;;;6183510;28;20424;-62
2022/03/20 06:27:56;;;;;;;66.45;28.73;;;;;;;;;;6185805;28;20046;-62
2022/03/20 06:30:56;;;;;;;65.65;28.88;;;;;;;;;;6178833;28;20414;-62
2022/03/20 06:33:58;;;;;;;66.70;29.63;;;;;;;;;;6180626;28;20073;-62
2022/03/20 06:36:59;;;;;;;69.03;28.53;;;;;;;;;;6201971;28;20054;-63
2022/03/20 06:40:00;;;;;;;66.18;28.85;;;;;;;;;;6177613;28;20582;-62
2022/03/20 06:43:01;;;;;;;63.22;27.77;;;;;;;;;;6182214;28;20052;-61
2022/03/20 06:46:03;;;;;;;58.20;27.47;;;;;;;;;;6182421;28;20492;-62
2022/03/20 06:49:04;;;;;;;53.20;26.50;;;;;;;;;;6182576;28;20434;-61
2022/03/20 06:52:05;;;;;;;67.85;28.67;;;;;;;;;;6182861;28;20445;-64
2022/03/20 06:55:07;;;;;;;62.30;27.58;;;;;;;;;;6179792;28;20134;-65
2022/03/20 06:58:10;;;;;;;56.30;26.60;;;;;;;;;;6179674;28;20132;-69
2022/03/20 07:01:10;;;;;;;65.28;27.80;;;;;;;;;;6171151;28;20058;-64
2022/03/20 07:04:11;;;;;;;60.47;27.75;;;;;;;;;;6186192;28;20092;-64
2022/03/20 07:07:12;;;;;;;61.92;27.42;;;;;;;;;;6194607;28;20077;-64
2022/03/20 07:10:13;;;;;;;61.50;27.45;;;;;;;;;;6206411;28;20054;-64
2022/03/20 07:16:33;;;;;;;58.75;26.73;;;;;;;;;;6193382;28;20121;-64
2022/03/20 07:19:38;;;;;;;61.72;26.25;;;;;;;;;;6184706;28;20046;-64
2022/03/20 07:22:40;;;;;;;61.63;27.67;;;;;;;;;;6190354;28;20423;-62
2022/03/20 07:32:20;;;;;;;49.78;23.52;;;;;;;;;;6193546;28;20505;-64
2022/03/20 07:35:21;;;;;;;56.28;24.35;;;;;;;;;;6193937;28;20047;-62
2022/03/20 07:38:21;;;;;;;52.45;24.38;;;;;;;;;;6190268;28;20126;-65
2022/03/20 07:41:22;;;;;;;50.33;23.02;;;;;;;;;;6209554;28;20065;-65
2022/03/20 07:44:24;;;;;;;52.20;23.80;;;;;;;;;;6212907;28;20042;-65
2022/03/20 07:47:25;;;;;;;50.10;23.50;;;;;;;;;;6212563;28;20045;-65
2022/03/20 07:50:26;;;;;;;48.63;23.33;;;;;;;;;;6210564;28;20053;-67
2022/03/20 07:53:27;;;;;;;51.45;23.85;;;;;;;;;;6214385;28;20107;-66
2022/03/20 07:56:28;;;;;;;47.95;24.33;;;;;;;;;;6207818;28;20041;-65
2022/03/20 07:59:29;;;;;;;50.78;22.75;;;;;;;;;;6203451;28;20069;-66
2022/03/20 08:02:29;;;;;;;46.53;22.77;;;;;;;;;;6211169;28;20531;-66
2022/03/20 08:05:30;;;;;;;47.67;23.40;;;;;;;;;;6211043;28;20050;-66
2022/03/20 08:08:31;;;;;;;47.53;22.73;;;;;;;;;;6200626;28;20495;-66
2022/03/20 08:11:33;;;;;;;45.50;21.70;;;;;;;;;;6208145;28;20042;-66
2022/03/20 08:14:36;;;;;;;46.00;23.38;;;;;;;;;;6201483;28;20101;-66
2022/03/20 08:17:45;;;;;;;46.65;22.48;;;;;;;;;;6210443;28;20065;-67
2022/03/20 08:20:46;;;;;;;47.63;22.45;;;;;;;;;;6210751;28;20049;-68
2022/03/20 08:23:49;;;;;;;40.78;20.98;;;;;;;;;;6215608;28;20777;-67
2022/03/20 08:26:50;;;;;;;43.88;22.35;;;;;;;;;;6214283;28;20038;-66
2022/03/20 08:29:52;;;;;;;45.67;22.02;;;;;;;;;;6202446;28;20418;-62
2022/03/20 08:32:53;;;;;;;44.92;21.25;;;;;;;;;;6203896;28;20046;-67
2022/03/20 08:35:54;;;;;;;46.00;21.15;;;;;;;;;;6212489;28;20129;-67
2022/03/20 08:38:55;;;;;;;40.72;21.25;;;;;;;;;;6204025;28;20360;-65
2022/03/20 08:41:56;;;;;;;42.50;22.40;;;;;;;;;;6204766;28;20072;-70
2022/03/20 08:44:57;;;;;;;43.13;21.17;;;;;;;;;;6208691;28;20382;-66
2022/03/20 08:47:58;;;;;;;44.15;23.00;;;;;;;;;;6205760;28;20136;-63
2022/03/20 08:50:59;;;;;;;46.78;22.08;;;;;;;;;;6208332;28;20058;-66
2022/03/20 08:54:01;;;;;;;44.45;22.27;;;;;;;;;;6191017;28;20054;-68
2022/03/20 08:57:05;;;;;;;42.00;21.83;;;;;;;;;;6200496;28;20048;-64
2022/03/20 09:00:12;;;;;;;44.58;21.27;;;;;;;;;;6212281;28;20061;-63
2022/03/20 09:03:13;;;;;;;40.85;20.90;;;;;;;;;;6212034;28;20504;-64
2022/03/20 09:06:15;;;;;;;40.45;19.25;;;;;;;;;;6198119;28;20057;-62
2022/03/20 09:09:15;;;;;;;35.22;18.60;;;;;;;;;;6201174;28;20761;-55
2022/03/20 09:12:16;;;;;;;36.60;18.98;;;;;;;;;;6213021;28;20385;-70
2022/03/20 09:15:17;;;;;;;38.25;18.30;;;;;;;;;;6211451;28;20042;-68
2022/03/20 09:21:38;;;;;;;39.38;19.30;;;;;;;;;;6211128;28;20046;-70
2022/03/20 09:24:39;;;;;;;40.72;20.63;;;;;;;;;;6215578;28;20034;-69
2022/03/20 09:27:40;;;;;;;37.67;19.40;;;;;;;;;;6208969;28;20405;-69
2022/03/20 09:30:42;;;;;;;36.60;20.30;;;;;;;;;;6211058;28;20712;-73
2022/03/20 09:33:43;;;;;;;39.20;19.38;;;;;;;;;;6216937;28;20042;-72
2022/03/20 09:36:44;;;;;;;31.15;16.40;;;;;;;;;;6214302;28;20405;-70
2022/03/20 09:39:45;;;;;;;33.22;17.13;;;;;;;;;;6215760;28;20042;-66
2022/03/20 09:42:46;;;;;;;29.23;16.75;;;;;;;;;;6217316;28;20440;-73
2022/03/20 09:45:48;;;;;;;33.45;17.15;;;;;;;;;;6215561;28;20052;-70
2022/03/20 09:48:49;;;;;;;29.60;16.38;;;;;;;;;;6210740;28;20047;-68
2022/03/20 09:51:50;;;;;;;31.48;16.02;;;;;;;;;;6203270;28;20104;-68
2022/03/20 09:54:50;;;;;;;32.10;16.73;;;;;;;;;;6210597;28;20383;-69
2022/03/20 09:57:56;;;;;;;29.80;16.52;;;;;;;;;;6217133;28;20119;-68
2022/03/20 10:00:57;;;;;;;29.10;15.75;;;;;;;;;;6214234;28;20058;-69
2022/03/20 10:04:07;;;;;;;25.23;14.20;;;;;;;;;;6212030;28;20643;-70
2022/03/20 10:07:20;;;;;;;32.70;15.05;;;;;;;;;;6214420;28;20054;-72
2022/03/20 10:10:25;;;;;;;26.92;15.27;;;;;;;;;;6209412;28;20057;-78
2022/03/20 10:13:26;;;;;;;28.63;14.95;;;;;;;;;;6205850;28;20928;-73
2022/03/20 10:16:27;;;;;;;25.70;14.48;;;;;;;;;;6215741;28;20045;-74
2022/03/20 10:19:28;;;;;;;32.70;16.73;;;;;;;;;;6206707;28;20584;-74
2022/03/20 10:22:32;;;;;;;27.48;14.95;;;;;;;;;;6205171;28;20053;-73
2022/03/20 10:25:33;;;;;;;28.85;14.93;;;;;;;;;;6208684;28;20069;-72
2022/03/20 10:28:40;;;;;;;27.27;14.10;;;;;;;;;;6213415;28;20050;-71
2022/03/20 10:31:52;;;;;;;29.98;14.75;;;;;;;;;;6212239;28;20405;-72
2022/03/20 10:34:54;;;;;;;30.45;15.15;;;;;;;;;;6210328;28;20046;-70
2022/03/20 10:37:55;;;;;;;33.45;15.50;;;;;;;;;;6211637;28;20050;-69
2022/03/20 10:40:58;;;;;;;26.48;14.95;;;;;;;;;;6211538;28;20065;-69
2022/03/20 10:43:59;;;;;;;31.77;16.52;;;;;;;;;;6210464;28;20445;-70
2022/03/20 10:47:04;;;;;;;52.80;24.65;;;;;;;;;;6209170;28;20054;-72
2022/03/20 10:50:07;;;;;;;29.80;15.65;;;;;;;;;;6190121;28;20054;-77
2022/03/20 10:53:09;;;;;;;26.67;14.27;;;;;;;;;;6189423;28;20050;-71
2022/03/20 10:56:10;;;;;;;25.80;12.38;;;;;;;;;;6190025;28;20049;-68
2022/03/20 10:59:15;;;;;;;25.90;12.43;;;;;;;;;;6184527;28;20569;-62
2022/03/20 11:02:24;;;;;;;26.58;12.88;;;;;;;;;;6196693;28;20142;-68
2022/03/20 11:05:25;;;;;;;28.25;14.60;;;;;;;;;;6201974;28;20049;-68
2022/03/20 11:08:26;;;;;;;25.67;13.80;;;;;;;;;;6210397;28;20059;-67
2022/03/20 11:11:27;;;;;;;31.52;15.43;;;;;;;;;;6205765;28;20053;-66
2022/03/20 11:14:28;;;;;;;31.00;15.70;;;;;;;;;;6212946;28;20093;-68
2022/03/20 11:17:45;;;;;;;27.27;15.45;;;;;;;;;;6207062;28;20049;-65
2022/03/20 11:20:51;;;;;;;36.95;18.25;;;;;;;;;;6183014;28;20054;-68
2022/03/20 11:23:53;;;;;;;33.45;15.77;;;;;;;;;;6173215;28;20054;-65
2022/03/20 11:26:59;;;;;;;31.52;16.30;;;;;;;;;;6173431;28;20054;-68
2022/03/20 11:30:02;;;;;;;27.88;15.27;;;;;;;;;;6171340;28;20544;-69
2022/03/20 11:33:05;;;;;;;30.75;15.85;;;;;;;;;;6172534;28;20046;-69
2022/03/20 11:36:05;;;;;;;24.77;13.63;;;;;;;;;;6169592;28;20563;-67
2022/03/20 11:39:11;;;;;;;25.95;13.55;;;;;;;;;;6174086;28;20054;-68
2022/03/20 11:42:28;;;;;;;27.92;15.43;;;;;;;;;;6173677;28;20060;-68
2022/03/20 11:45:29;;;;;;;24.52;14.05;;;;;;;;;;6172268;28;20057;-70
2022/03/20 11:48:30;;;;;;;37.00;16.95;;;;;;;;;;6170566;28;21547;-69
2022/03/20 11:51:51;;;;;;;32.38;15.60;;;;;;;;;;6170391;28;20177;-68
2022/03/20 11:54:53;;;;;;;24.13;13.35;;;;;;;;;;6170984;28;20049;-67
2022/03/20 11:58:08;;;;;;;23.88;12.05;;;;;;;;;;6168316;28;20073;-68
2022/03/20 12:01:12;;;;;;;19.92;11.88;;;;;;;;;;6166897;28;20069;-67
2022/03/20 12:04:15;;;;;;;24.20;11.38;;;;;;;;;;6170234;28;20061;-68
2022/03/20 12:07:24;;;;;;;23.00;11.50;;;;;;;;;;6168622;28;20065;-70
2022/03/20 12:10:43;;;;;;;21.42;11.70;;;;;;;;;;6169161;28;20050;-67
2022/03/20 12:14:28;;;;;;;19.63;11.30;;;;;;;;;;6170089;28;20059;-68
2022/03/20 12:17:56;;;;;;;19.92;11.43;;;;;;;;;;6175433;28;20095;-68
2022/03/20 12:21:04;;;;;;;19.92;11.27;;;;;;;;;;6171844;28;20058;-69
2022/03/20 12:24:34;;;;;;;19.58;10.50;;;;;;;;;;6171450;28;20054;-67
2022/03/20 12:27:36;;;;;;;17.73;10.48;;;;;;;;;;6171845;28;20076;-70
2022/03/20 12:30:37;;;;;;;21.50;11.50;;;;;;;;;;6169151;28;20457;-68
2022/03/20 12:33:38;;;;;;;20.23;10.98;;;;;;;;;;6173743;28;20078;-69
2022/03/20 12:36:39;;;;;;;21.77;11.45;;;;;;;;;;6176546;28;20904;-70
2022/03/20 12:39:48;;;;;;;23.48;11.05;;;;;;;;;;6173170;28;20058;-69
2022/03/20 12:43:01;;;;;;;18.45;11.25;;;;;;;;;;6171145;28;20504;-70
2022/03/20 12:46:02;;;;;;;17.00;9.88;;;;;;;;;;6172066;28;20157;-70
2022/03/20 12:49:04;;;;;;;18.83;10.25;;;;;;;;;;6175375;28;20592;-68
2022/03/20 12:52:06;;;;;;;19.25;10.52;;;;;;;;;;6171211;28;20058;-68
2022/03/20 12:55:09;;;;;;;19.77;11.60;;;;;;;;;;6171158;28;20288;-68
2022/03/20 12:58:14;;;;;;;18.25;10.10;;;;;;;;;;6173320;28;20830;-68
2022/03/20 13:01:17;;;;;;;17.95;9.93;;;;;;;;;;6172457;28;20086;-69
2022/03/20 13:04:19;;;;;;;19.25;9.98;;;;;;;;;;6170891;28;20066;-71
2022/03/20 13:07:23;;;;;;;20.63;9.82;;;;;;;;;;6168554;28;20050;-68
2022/03/20 13:10:30;;;;;;;22.02;12.93;;;;;;;;;;6171347;28;20498;-69
2022/03/20 13:13:36;;;;;;;25.80;12.48;;;;;;;;;;6177304;28;20046;-68
2022/03/20 13:16:47;;;;;;;24.92;11.68;;;;;;;;;;6179341;28;20057;-68
2022/03/20 13:19:48;;;;;;;20.58;11.00;;;;;;;;;;6181928;28;20077;-68
2022/03/20 13:22:49;;;;;;;21.55;11.63;;;;;;;;;;6182046;28;20056;-68
2022/03/20 13:25:53;;;;;;;21.13;11.70;;;;;;;;;;6183159;28;20058;-67
2022/03/20 13:28:57;;;;;;;21.17;11.55;;;;;;;;;;6182848;28;20134;-68
2022/03/20 13:31:59;;;;;;;21.85;11.75;;;;;;;;;;6180690;28;20085;-68
2022/03/20 13:35:01;;;;;;;22.35;12.70;;;;;;;;;;6181386;28;20820;-68
2022/03/20 13:38:03;;;;;;;23.45;12.27;;;;;;;;;;6183327;28;20054;-69
2022/03/20 13:41:15;;;;;;;21.95;12.98;;;;;;;;;;6179529;28;20070;-68
2022/03/20 13:44:16;;;;;;;22.23;12.07;;;;;;;;;;6182393;28;20077;-69
2022/03/20 13:47:17;;;;;;;24.35;13.65;;;;;;;;;;6195980;28;20042;-68
2022/03/20 13:50:18;;;;;;;24.83;13.43;;;;;;;;;;6208875;28;20049;-71
2022/03/20 13:53:26;;;;;;;25.98;14.32;;;;;;;;;;6197272;28;20042;-68
2022/03/20 13:56:27;;;;;;;24.88;13.45;;;;;;;;;;6196051;28;20157;-67
2022/03/20 13:59:31;;;;;;;23.55;12.68;;;;;;;;;;6193781;28;20086;-69
2022/03/20 14:02:40;;;;;;;23.85;13.13;;;;;;;;;;6215210;28;20074;-67
2022/03/20 14:05:51;;;;;;;23.58;13.38;;;;;;;;;;6193546;28;20062;-67
2022/03/20 14:08:52;;;;;;;27.58;13.93;;;;;;;;;;6178014;28;20103;-67
2022/03/20 14:11:52;;;;;;;24.45;13.40;;;;;;;;;;6182532;28;20074;-67
2022/03/20 14:15:04;;;;;;;25.95;13.65;;;;;;;;;;6194153;28;20053;-67
2022/03/20 14:18:12;;;;;;;25.80;14.77;;;;;;;;;;6193405;28;20058;-67
2022/03/20 14:21:25;;;;;;;32.90;15.80;;;;;;;;;;6185981;28;20050;-66
2022/03/20 14:24:43;;;;;;;25.83;13.48;;;;;;;;;;6182488;28;20659;-66
2022/03/20 14:27:43;;;;;;;28.45;13.90;;;;;;;;;;6183292;28;20056;-65
2022/03/20 14:40:48;;;;;;;22.42;12.48;;;;;;;;;;6179809;28;20511;-66
2022/03/20 14:44:23;;;;;;;20.52;11.35;;;;;;;;;;6181300;28;20402;-66
2022/03/20 14:47:26;;;;;;;22.50;12.23;;;;;;;;;;6160894;28;20065;-67
2022/03/20 14:50:26;;;;;;;24.35;13.45;;;;;;;;;;6181708;28;20496;-68
2022/03/20 14:53:34;;;;;;;21.45;11.77;;;;;;;;;;6183308;28;20043;-68
2022/03/20 14:56:35;;;;;;;23.80;13.55;;;;;;;;;;6180275;28;20061;-68
2022/03/20 14:59:36;;;;;;;36.42;18.90;;;;;;;;;;6182421;28;20134;-68
2022/03/20 15:02:37;;;;;;;31.17;15.88;;;;;;;;;;6181787;28;20422;-68
2022/03/20 15:05:38;;;;;;;22.05;13.13;;;;;;;;;;6180240;28;20689;-68
2022/03/20 15:11:59;;;;;;;25.95;13.27;;;;;;;;;;6179451;28;20089;-68
2022/03/20 15:15:00;;;;;;;23.30;12.07;;;;;;;;;;6174170;28;20050;-68
2022/03/20 15:18:03;;;;;;;24.20;11.70;;;;;;;;;;6183136;28;20454;-68
2022/03/20 15:21:04;;;;;;;20.08;11.60;;;;;;;;;;6178889;28;20440;-68
2022/03/20 15:24:05;;;;;;;22.88;11.80;;;;;;;;;;6179037;28;20062;-68
2022/03/20 15:27:07;;;;;;;22.75;11.57;;;;;;;;;;6180234;28;20963;-68
2022/03/20 15:30:09;;;;;;;19.90;10.43;;;;;;;;;;6181255;28;20066;-68
2022/03/20 15:33:09;;;;;;;22.30;10.20;;;;;;;;;;6176444;28;20077;-68
2022/03/20 15:36:14;;;;;;;18.27;11.30;;;;;;;;;;6182872;28;20046;-66
2022/03/20 15:39:16;;;;;;;22.75;11.05;;;;;;;;;;6182169;28;20170;-67
2022/03/20 15:42:16;;;;;;;21.63;11.82;;;;;;;;;;6179848;28;20042;-67
2022/03/20 15:45:17;;;;;;;23.42;11.90;;;;;;;;;;6181695;28;20117;-67
2022/03/20 15:48:19;;;;;;;20.85;11.23;;;;;;;;;;6181520;28;20057;-67
2022/03/20 15:51:20;;;;;;;22.35;11.55;;;;;;;;;;6182268;28;20057;-67
2022/03/20 15:54:21;;;;;;;23.05;11.85;;;;;;;;;;6182721;28;20141;-67
2022/03/20 15:57:23;;;;;;;21.80;10.63;;;;;;;;;;6179772;28;20042;-67
2022/03/20 16:00:24;;;;;;;25.33;12.02;;;;;;;;;;6180460;28;20038;-67
2022/03/20 16:03:26;;;;;;;24.58;12.93;;;;;;;;;;6178163;28;20716;-67
2022/03/20 16:06:29;;;;;;;21.83;12.30;;;;;;;;;;6177605;28;20046;-66
2022/03/20 16:09:30;;;;;;;26.85;11.98;;;;;;;;;;6177570;28;20093;-66
2022/03/20 16:12:31;;;;;;;22.03;10.90;;;;;;;;;;6181258;28;20049;-67
2022/03/20 16:15:34;;;;;;;22.23;11.30;;;;;;;;;;6180222;28;20463;-66
2022/03/20 16:18:35;;;;;;;25.92;12.00;;;;;;;;;;6178655;28;20053;-67
2022/03/20 16:21:36;;;;;;;21.17;10.68;;;;;;;;;;6176981;28;20077;-66
2022/03/20 16:31:18;;;;;;;26.02;12.77;;;;;;;;;;6180638;28;20053;-67
2022/03/20 16:34:19;;;;;;;23.58;11.73;;;;;;;;;;6178597;28;20085;-67
2022/03/20 16:37:19;;;;;;;29.73;14.02;;;;;;;;;;6180827;28;20484;-67
2022/03/20 16:40:21;;;;;;;35.17;16.77;;;;;;;;;;6178432;28;20046;-67
2022/03/20 16:43:22;;;;;;;32.10;13.97;;;;;;;;;;6179462;28;20190;-67
2022/03/20 16:46:23;;;;;;;25.37;13.37;;;;;;;;;;6180242;28;20038;-67
2022/03/20 16:49:25;;;;;;;24.33;12.30;;;;;;;;;;6176904;28;20070;-67
2022/03/20 16:52:26;;;;;;;24.02;10.88;;;;;;;;;;6175162;28;20426;-67
2022/03/20 16:55:27;;;;;;;21.45;11.05;;;;;;;;;;6180442;28;20041;-67
2022/03/20 16:58:29;;;;;;;21.00;11.60;;;;;;;;;;6180683;28;20728;-67
2022/03/20 17:01:30;;;;;;;22.52;11.23;;;;;;;;;;6178906;28;20154;-68
2022/03/20 17:04:30;;;;;;;21.50;9.77;;;;;;;;;;6168997;28;20093;-67
2022/03/20 17:07:32;;;;;;;18.65;10.57;;;;;;;;;;6178348;28;20138;-67
2022/03/20 17:10:33;;;;;;;25.95;11.38;;;;;;;;;;6179021;28;20093;-67
2022/03/20 17:13:35;;;;;;;25.33;11.68;;;;;;;;;;6178536;28;20057;-67
2022/03/20 17:16:36;;;;;;;25.33;11.48;;;;;;;;;;6178277;28;20050;-67
2022/03/20 17:19:37;;;;;;;23.58;11.98;;;;;;;;;;6177234;28;20951;-68
2022/03/20 17:22:38;;;;;;;24.77;11.10;;;;;;;;;;6178121;28;20094;-67
2022/03/20 17:25:41;;;;;;;23.25;11.35;;;;;;;;;;6181830;28;20077;-67
2022/03/20 17:28:44;;;;;;;27.30;13.80;;;;;;;;;;6185150;28;20445;-69
2022/03/20 17:31:45;;;;;;;32.58;15.90;;;;;;;;;;6180817;28;20051;-67
2022/03/20 17:34:46;;;;;;;36.58;17.23;;;;;;;;;;6181462;28;21647;-67
2022/03/20 17:37:47;;;;;;;36.15;16.63;;;;;;;;;;6179585;28;20038;-67
2022/03/20 17:40:48;;;;;;;31.63;16.27;;;;;;;;;;6187550;28;20042;-67
2022/03/20 17:43:50;;;;;;;38.92;16.52;;;;;;;;;;6184762;28;20925;-67
2022/03/20 17:46:50;;;;;;;43.80;18.27;;;;;;;;;;6177664;28;20046;-68
2022/03/20 17:49:52;;;;;;;45.58;17.23;;;;;;;;;;6180225;28;20061;-68
2022/03/20 17:52:52;;;;;;;44.17;17.33;;;;;;;;;;6175906;28;20054;-67
2022/03/20 17:55:54;;;;;;;47.80;17.25;;;;;;;;;;6178171;28;20131;-68
2022/03/20 17:58:56;;;;;;;37.08;15.77;;;;;;;;;;6178499;28;20058;-67
2022/03/20 18:08:36;;;;;;;25.88;12.52;;;;;;;;;;6186865;28;20144;-62
2022/03/20 18:11:37;;;;;;;29.50;12.77;;;;;;;;;;6187488;28;20072;-71
2022/03/20 18:14:40;;;;;;;32.85;14.77;;;;;;;;;;6183954;28;20516;-72
2022/03/20 18:17:46;;;;;;;35.40;15.50;;;;;;;;;;6185030;28;20054;-69
2022/03/20 18:20:48;;;;;;;50.72;20.63;;;;;;;;;;6186731;28;20050;-70
2022/03/20 18:23:50;;;;;;;47.85;22.50;;;;;;;;;;6182035;28;20086;-69
2022/03/20 18:26:51;;;;;;;46.15;19.60;;;;;;;;;;6173219;28;20047;-69
2022/03/20 18:29:52;;;;;;;46.83;19.92;;;;;;;;;;6173368;28;20057;-69
2022/03/20 18:32:55;;;;;;;50.10;21.67;;;;;;;;;;6170831;28;20145;-69
2022/03/20 18:35:55;;;;;;;53.25;20.30;;;;;;;;;;6171984;28;20061;-68
2022/03/20 18:38:57;;;;;;;48.75;19.25;;;;;;;;;;6178626;28;20050;-67
2022/03/20 18:41:58;;;;;;;46.90;19.02;;;;;;;;;;6171351;28;20062;-66
2022/03/20 18:45:00;;;;;;;51.47;20.50;;;;;;;;;;6169371;28;20058;-66